Главная страница
METAR-TAF:

METAR-TAF

Аэропорты :

Витебск, Белоруссия

широта: 55-10N, долгота: 030-13E, высота над уровнем моря: 176 м

Текущие метеонаблюдения

Эта сводка был подготовлена 58 минут назад, в 05:00 UTC
Ветер 2 Узел от северный
Температура 0°C
Влажность 100%
Давление 1022 hPa
Видимость: 4900 м
дымка, Тонкий туман

METAR: UMII 200500Z 36001MPS 4900 BR MIFG NSC 00/M00 Q1022 TEMPO 2000

Время: 08:58 (05:58 UTC)

Прогноз

Эта сводка был подготовлена 1 час и 28 минут назад, в 04:30 UTC
Прогноз действительный с 20-го 05 UTC до 20-го 15 UTC
Ветер 4 Узел переменных направлений
Видимость: 4000 м
Отдельные облака на высоте 1000 фута
дымка
временами
С 20-го 05 UTC до 20-го 08 UTC
Видимость: 0500 м
на высоте 300 фута
туман
временами
С 20-го 08 UTC до 20-го 10 UTC
Видимость: 2000 м
Рассеянная облачность на высоте 500 фута
дымка

TAF: UMII 200430Z 2005/2015 VRB02MPS 4000 BR SCT010 TEMPO 2005/2008 0500 FG VV003 TEMPO 2008/2010 2000 BR BKN005

Метеонаблюдения и прогнозы для более 4000 аэропортов (сводки METAR и TAF).

Имеющиеся станции представлены на карте желтыми и красными точками.

Чтобы увидеть название станции, наведите на нее мышь.

Затем щелкните, чтобы увидеть метеонаблюдения и метеопрогнозы.

Управление картой: чтобы увеличить масштаб, щелкните зеленые кнопки с черным крестиком; чтобы уменьшить масштаб, щелкните зеленую кнопку с тире; для просмотра соседних карт щелкайте зеленые стрелки.


METAR-TAF: